Aérodrome :
LOGIN :

S'inscrire | Disclaimer

   EN    FR    IT 

 










Légende :    VFR   VFR Marginal   IFR   IFR Intensif   IFR Très Intensif
Visi : 
Plafond : 
>= 8 km
>= 3000ft
5 à 8 km
1000 à 3000 ft
1500m à 5 km
500 à 1000 ft
800 à 1500m
200 à 500 ft
< 800m
< 200 ft
Symboles :   Orages  Brouillard  Fortes neiges  Fortes précipitations  Vent > 20 kt
SIGMETs :   Divers  Orages  Givrage  Turbulence  Onde Orograph.  Cendres Volcan.






- Altitude de l'aérodrome : 370 ft


EBBE - Beauvechain AB

DERNIER METAR :
  • 141055Z 19012KT 9999 FEW019 BKN022 16/12 Q1006 WHT WHT

METARs EXPIRÉS :
  • 141025Z 20010KT 9999 SCT019 BKN021 16/12 Q1006 WHT WHT
  • 140955Z 19013KT 9999 BKN020 16/11 Q1006 WHT WHT
  • 140925Z 19013KT 9999 BKN020 15/11 Q1007 WHT WHT
  • 140855Z 20014KT 9999 BKN021 15/10 Q1007 WHT WHT
  • 140825Z 20014KT 9999 SCT021 BKN025 15/10 Q1007 WHT WHT
  • 140807Z 20019KT 9999 SCT021 BKN025 15/10 Q1007 WHT WHT
  • 140755Z 20016KT 9999 FEW020 BKN025 15/10 Q1007 BLU BLU BECMG WHT
  • 140725Z 19015KT 9999 FEW020 BKN030 15/10 Q1006 BLU BLU
  • 140655Z 18012KT 9999 FEW020 BKN032 14/10 Q1007 BLU BLU
  • 140625Z 18012KT 9999 FEW020 BKN032 14/10 Q1007 BLU BLU

TAF TAF EBBE
Valide du 14 à 10h jusqu'au 14 à 19h UTC


140841Z 1410/1419 21010KT 9999 FEW018 BKN020
BECMG 1410/1411 20012G22KT FEW025 SCT035
TEMPO 1410/1417 20015G25KT
TEMPO 1416/1419 7000 -SHRA SCT023TCU
TEMPO 1417/1419 4000 SHRA BKN022TCU



MET'MAP, la Météo Aéronautique d'un coup d'oeil ! - Copyright ORBIFLY Décembre 2007 - Disclaimer

ORBIFLY MET'MAP TEAM :

Programmation & Développement : Alexandra Zaïnal
Sur une idée originale de : Baudouin d'Aumeries
Soutien technique & logistique : Manuel Goepfert
Assistance : Marc-Olivier Méhu




SOURCES & CREDITS :

   NOAA